createdAt,value
2019-03-23T00:00:49.275Z,3.1
2019-03-23T00:03:49.192Z,3.1
2019-03-23T00:06:49.304Z,3.3
2019-03-23T00:09:49.356Z,3.2
2019-03-23T00:12:49.294Z,3.2
2019-03-23T00:15:49.478Z,3.2
2019-03-23T00:18:49.231Z,3.1
2019-03-23T00:21:49.132Z,3.3
2019-03-23T00:24:49.352Z,3.1
2019-03-23T00:27:49.255Z,3.2
2019-03-23T00:30:49.338Z,3.3
2019-03-23T00:33:49.357Z,3.2
2019-03-23T00:36:49.172Z,3.2
2019-03-23T00:39:49.193Z,3.1
2019-03-23T00:42:49.190Z,3.2
2019-03-23T00:45:49.249Z,3.1
2019-03-23T00:48:49.403Z,4.6
2019-03-23T00:51:49.334Z,3.8
2019-03-23T00:54:49.145Z,3.3
2019-03-23T00:57:49.240Z,3
2019-03-23T01:00:49.264Z,3.2
2019-03-23T01:03:49.287Z,2.9
2019-03-23T01:06:52.763Z,3.4
2019-03-23T01:09:49.503Z,3.1
2019-03-23T01:12:49.121Z,3.3
2019-03-23T01:15:49.252Z,3.2
2019-03-23T01:18:49.232Z,3.3
2019-03-23T01:21:49.237Z,3.2
2019-03-23T01:24:49.487Z,3.3
2019-03-23T01:27:49.423Z,3.2
2019-03-23T01:30:49.346Z,3.3
2019-03-23T01:33:49.235Z,3.3
2019-03-23T01:36:49.231Z,3.3
2019-03-23T01:39:49.188Z,3.2
2019-03-23T01:42:50.347Z,3.3
2019-03-23T01:45:49.227Z,3.6
2019-03-23T01:48:49.296Z,3.5
2019-03-23T01:51:49.084Z,3.4
2019-03-23T01:54:49.208Z,3.4
2019-03-23T01:57:49.200Z,3.4
2019-03-23T02:00:49.327Z,4.8
2019-03-23T02:03:49.369Z,3.2
2019-03-23T02:06:49.465Z,3.1
2019-03-23T02:09:49.104Z,3.2
2019-03-23T02:12:49.140Z,3.7
2019-03-23T02:15:49.160Z,3.5
2019-03-23T02:18:49.304Z,3.4
2019-03-23T02:21:49.233Z,3.4
2019-03-23T02:24:49.389Z,3.4
2019-03-23T02:27:49.182Z,3.2
2019-03-23T02:30:49.264Z,3.2
2019-03-23T02:33:49.180Z,3.5
2019-03-23T02:36:49.286Z,3.3
2019-03-23T02:39:49.245Z,3.5
2019-03-23T02:42:49.465Z,3.4
2019-03-23T02:45:49.100Z,3.5
2019-03-23T02:48:49.109Z,3.2
2019-03-23T02:51:49.323Z,3.6
2019-03-23T02:54:49.315Z,3.7
2019-03-23T02:57:49.226Z,3.6
2019-03-23T03:00:49.384Z,3.5
2019-03-23T03:03:49.158Z,3.4
2019-03-23T03:06:49.258Z,3.6
2019-03-23T03:09:49.398Z,3.5
2019-03-23T03:12:49.215Z,3.2
2019-03-23T03:15:49.358Z,3.5
2019-03-23T03:18:49.298Z,3.3
2019-03-23T03:21:49.427Z,3.4
2019-03-23T03:24:49.192Z,3.4
2019-03-23T03:27:49.099Z,3.5
2019-03-23T03:30:49.398Z,3.4
2019-03-23T03:33:49.559Z,3.3
2019-03-23T03:36:49.482Z,3.6
2019-03-23T03:39:49.174Z,3.5
2019-03-23T03:42:49.248Z,3.3
2019-03-23T03:45:49.229Z,3.2
2019-03-23T03:48:49.620Z,3.4
2019-03-23T03:51:49.356Z,3.9
2019-03-23T03:54:49.396Z,3.6
2019-03-23T03:57:49.290Z,3.8
2019-03-23T04:00:49.395Z,3.4
2019-03-23T04:03:49.271Z,3.6
2019-03-23T04:06:49.370Z,3.6
2019-03-23T04:09:49.521Z,3.3
2019-03-23T04:12:49.336Z,3.5
2019-03-23T04:15:49.137Z,3.4
2019-03-23T04:18:49.237Z,3.6
2019-03-23T04:21:49.476Z,3.4
2019-03-23T04:24:49.301Z,3.5
2019-03-23T04:27:49.504Z,3.5
2019-03-23T04:30:49.404Z,3.6
2019-03-23T04:33:49.076Z,3.3
2019-03-23T04:36:49.173Z,3.9
2019-03-23T04:39:49.686Z,3.7
2019-03-23T04:42:49.199Z,3.6
2019-03-23T04:45:49.304Z,3.2
2019-03-23T04:48:49.259Z,3.4
2019-03-23T04:51:49.182Z,3.5
2019-03-23T04:54:49.163Z,3.4
2019-03-23T04:57:49.215Z,3.6
2019-03-23T05:00:49.810Z,3.5
2019-03-23T05:03:49.392Z,3.4
2019-03-23T05:06:49.341Z,3.6
2019-03-23T05:09:49.026Z,3.4
2019-03-23T05:12:49.193Z,3.2
2019-03-23T05:15:49.084Z,3.9
2019-03-23T05:18:49.155Z,3
2019-03-23T05:21:49.222Z,3.3
2019-03-23T05:24:49.221Z,3.5
2019-03-23T05:27:49.416Z,3.5
2019-03-23T05:30:49.352Z,3.4
2019-03-23T05:33:49.231Z,3.3
2019-03-23T05:36:49.136Z,3.3
2019-03-23T05:39:49.268Z,3.3
2019-03-23T05:42:49.381Z,3.2
2019-03-23T05:45:49.148Z,3.4
2019-03-23T05:48:49.049Z,3.4
2019-03-23T05:51:49.097Z,3.5
2019-03-23T05:54:49.262Z,3.6
2019-03-23T05:57:49.262Z,3.6
2019-03-23T06:00:49.368Z,3.5
2019-03-23T06:03:49.010Z,3.4
2019-03-23T06:06:49.947Z,3.2
2019-03-23T06:09:49.241Z,3.3
2019-03-23T06:12:49.210Z,3.4
2019-03-23T06:15:49.301Z,3.5
2019-03-23T06:18:49.457Z,3.3
2019-03-23T06:21:49.148Z,3.4
2019-03-23T06:24:49.105Z,3.2
2019-03-23T06:27:49.770Z,3.3
2019-03-23T06:30:49.267Z,3.5
2019-03-23T06:33:49.282Z,3.1
2019-03-23T06:36:49.337Z,3.3
2019-03-23T06:39:49.174Z,3.2
2019-03-23T06:43:00.322Z,3.1
2019-03-23T06:45:49.182Z,3.5
2019-03-23T06:48:49.152Z,3.1
2019-03-23T06:51:49.261Z,3.3
2019-03-23T06:54:49.555Z,3.3
2019-03-23T06:57:49.077Z,3.4
2019-03-23T07:00:49.263Z,3.3
2019-03-23T07:03:49.141Z,3.4
2019-03-23T07:06:49.244Z,3.1
2019-03-23T07:09:49.330Z,3.6
2019-03-23T07:12:49.298Z,3.4
2019-03-23T07:15:49.023Z,3.6
2019-03-23T07:18:49.145Z,3.4
2019-03-23T07:21:49.287Z,3.3
2019-03-23T07:24:49.218Z,3.3
2019-03-23T07:27:49.407Z,3.4
2019-03-23T07:30:49.284Z,3.3
2019-03-23T07:33:49.131Z,3.3
2019-03-23T07:36:49.134Z,3.4
2019-03-23T07:39:49.303Z,3.5
2019-03-23T07:42:49.094Z,3.3
2019-03-23T07:45:49.136Z,3.2
2019-03-23T07:48:49.320Z,3.2
2019-03-23T07:51:49.184Z,3.3
2019-03-23T07:54:49.098Z,3.5
2019-03-23T07:57:49.076Z,3.4
2019-03-23T08:00:49.381Z,11
2019-03-23T08:03:49.156Z,8.7
2019-03-23T08:06:49.026Z,9.5
2019-03-23T08:09:48.995Z,8.7
2019-03-23T08:12:49.009Z,6.1
2019-03-23T08:15:49.155Z,5.9
2019-03-23T08:18:49.080Z,5.7
2019-03-23T08:21:49.286Z,5.2
2019-03-23T08:24:48.927Z,6.4
2019-03-23T08:27:49.068Z,5.3
2019-03-23T08:30:49.105Z,4.4
2019-03-23T08:33:49.053Z,4.8
2019-03-23T08:36:49.117Z,4.9
2019-03-23T08:39:49.335Z,4.5
2019-03-23T08:42:49.146Z,5
2019-03-23T08:45:48.934Z,4.2
2019-03-23T08:48:48.972Z,5
2019-03-23T08:51:49.179Z,4.3
2019-03-23T08:54:49.162Z,4.4
2019-03-23T08:57:49.081Z,7.4
2019-03-23T09:00:49.294Z,7
2019-03-23T09:03:53.098Z,5.2
2019-03-23T09:06:49.133Z,4.8
2019-03-23T09:09:59.761Z,7.9
2019-03-23T09:12:49.228Z,4.9
2019-03-23T09:15:49.233Z,4.6
2019-03-23T09:18:49.176Z,4.1
2019-03-23T09:21:49.069Z,4.9
2019-03-23T09:24:49.024Z,3.9
2019-03-23T09:27:49.191Z,4.7
2019-03-23T09:30:49.055Z,4.1
2019-03-23T09:33:49.141Z,4.3
2019-03-23T09:36:49.164Z,3.9
2019-03-23T09:39:48.941Z,4.8
2019-03-23T09:42:49.166Z,3.8
2019-03-23T09:45:49.060Z,4.6
2019-03-23T09:48:49.078Z,3.7
2019-03-23T09:51:49.118Z,4.4
2019-03-23T09:54:48.989Z,4.4
2019-03-23T09:57:48.995Z,4.3
2019-03-23T10:00:49.074Z,8.8
2019-03-23T10:03:49.100Z,4.3
2019-03-23T10:06:49.109Z,5.2
2019-03-23T10:09:49.151Z,5.2
2019-03-23T10:12:49.091Z,4
2019-03-23T10:15:49.004Z,5
2019-03-23T10:18:49.011Z,3.4
2019-03-23T10:21:51.014Z,4.8
2019-03-23T10:24:49.168Z,5
2019-03-23T10:27:48.906Z,3.5
2019-03-23T10:30:48.961Z,3.4
2019-03-23T10:33:49.101Z,3.5
2019-03-23T10:36:49.153Z,4.4
2019-03-23T10:39:49.098Z,4.1
2019-03-23T10:42:49.017Z,3.6
2019-03-23T10:45:48.985Z,5.2
2019-03-23T10:48:48.955Z,3.6
2019-03-23T10:51:49.158Z,3.8
2019-03-23T10:54:49.138Z,5.6
2019-03-23T10:57:49.292Z,4.5
2019-03-23T11:00:49.226Z,4.2
2019-03-23T11:03:48.988Z,3.8
2019-03-23T11:06:48.932Z,3.7
2019-03-23T11:09:49.064Z,3.8
2019-03-23T11:12:49.843Z,4.9
2019-03-23T11:15:48.991Z,4.7
2019-03-23T11:18:49.023Z,5.6
2019-03-23T11:21:49.150Z,4.2
2019-03-23T11:24:49.166Z,4
2019-03-23T11:27:49.098Z,5.2
2019-03-23T11:30:48.876Z,3.9
2019-03-23T11:33:49.016Z,3.5
2019-03-23T11:36:49.189Z,3.7
2019-03-23T11:39:49.166Z,3.3
2019-03-23T11:42:50.859Z,4.4
2019-03-23T11:45:49.597Z,3.8
2019-03-23T11:48:48.992Z,4
2019-03-23T11:51:49.060Z,3.3
2019-03-23T11:54:49.025Z,5.2
2019-03-23T11:57:49.161Z,3.8
2019-03-23T12:00:49.235Z,3.7
2019-03-23T12:03:48.899Z,5.7
2019-03-23T12:06:48.896Z,3.4
2019-03-23T12:09:49.000Z,3.5
2019-03-23T12:12:49.165Z,3.5
2019-03-23T12:15:49.173Z,4.5
2019-03-23T12:18:49.004Z,4.5
2019-03-23T12:21:51.149Z,3.4
2019-03-23T12:24:49.060Z,3.3
2019-03-23T12:27:49.084Z,3.6
2019-03-23T12:30:48.886Z,3.4
2019-03-23T12:33:48.952Z,4.1
2019-03-23T12:36:48.920Z,3.8
2019-03-23T12:39:48.932Z,3.3
2019-03-23T12:42:49.063Z,3.7
2019-03-23T12:45:49.017Z,3.4
2019-03-23T12:48:49.148Z,3.3
2019-03-23T12:51:53.298Z,3.3
2019-03-23T12:54:49.049Z,3.6
2019-03-23T12:57:49.022Z,3.7
2019-03-23T13:00:49.103Z,3.4
2019-03-23T13:03:48.923Z,3.2
2019-03-23T13:06:49.006Z,3.2
2019-03-23T13:09:48.988Z,3.1
2019-03-23T13:12:49.013Z,3.2
2019-03-23T13:15:49.094Z,3.2
2019-03-23T13:18:49.924Z,3.4
2019-03-23T13:21:49.306Z,5.8
2019-03-23T13:24:48.975Z,3.4
2019-03-23T13:27:49.307Z,3.5
2019-03-23T13:30:49.091Z,5.6
2019-03-23T13:33:49.286Z,3.7
2019-03-23T13:36:49.096Z,4.6
2019-03-23T13:39:49.099Z,5.8
2019-03-23T13:42:49.003Z,7.7
2019-03-23T13:45:48.931Z,5.3
2019-03-23T13:48:48.936Z,4.6
2019-03-23T13:51:49.053Z,4.6
2019-03-23T13:54:49.196Z,5.6
2019-03-23T13:57:48.928Z,4.5
2019-03-23T14:00:49.152Z,5.5
2019-03-23T14:03:49.068Z,5.7
2019-03-23T14:06:49.025Z,4.5
2019-03-23T14:09:49.041Z,4.6
2019-03-23T14:12:49.118Z,3.8
2019-03-23T14:15:48.825Z,4.2
2019-03-23T14:18:49.076Z,3.5
2019-03-23T14:21:48.976Z,3.9
2019-03-23T14:24:49.023Z,5
2019-03-23T14:27:49.008Z,5.2
2019-03-23T14:30:48.812Z,4.9
2019-03-23T14:33:48.910Z,3.7
2019-03-23T14:36:49.020Z,3.5
2019-03-23T14:39:49.289Z,3.7
2019-03-23T14:42:49.134Z,3.9
2019-03-23T14:45:49.147Z,4.4
2019-03-23T14:48:48.829Z,4
2019-03-23T14:51:49.086Z,3.9
2019-03-23T15:00:05.671Z,3.8
2019-03-23T15:03:05.944Z,4
2019-03-23T15:06:07.705Z,3.3
2019-03-23T15:09:05.637Z,3.3
2019-03-23T15:12:15.635Z,3.8
2019-03-23T15:15:05.835Z,3.8
2019-03-23T15:18:05.815Z,3.7
2019-03-23T15:21:05.618Z,4.7
2019-03-23T15:24:05.706Z,4.6
2019-03-23T15:27:05.572Z,3.9
2019-03-23T15:30:05.973Z,3.3
2019-03-23T15:33:05.711Z,3.3
2019-03-23T15:36:05.732Z,3.4
2019-03-23T15:39:05.538Z,3.4
2019-03-23T15:42:05.595Z,3.7
2019-03-23T15:45:05.639Z,3.7
2019-03-23T15:48:05.700Z,3.3
2019-03-23T15:51:05.818Z,3.6
2019-03-23T15:54:05.685Z,3.3
2019-03-23T15:57:05.563Z,3.3
2019-03-23T16:00:05.356Z,4.3
2019-03-23T16:03:05.671Z,3.5
2019-03-23T16:06:05.836Z,5.8
2019-03-23T16:09:05.754Z,4.4
2019-03-23T16:12:05.637Z,4.6
2019-03-23T16:15:05.662Z,3.9
2019-03-23T16:18:05.664Z,3.9
2019-03-23T16:21:05.695Z,3.5
2019-03-23T16:24:05.578Z,4.2
2019-03-23T16:27:05.408Z,4.7
2019-03-23T16:30:05.694Z,4.8
2019-03-23T16:33:05.149Z,3.6
2019-03-23T16:36:05.172Z,4.7
2019-03-23T16:39:05.280Z,4.1
2019-03-23T16:42:05.362Z,4.6
2019-03-23T16:45:05.355Z,4.2
2019-03-23T16:48:05.077Z,4.2
2019-03-23T16:51:05.478Z,4
2019-03-23T16:54:05.180Z,6
2019-03-23T16:57:05.363Z,4
2019-03-23T17:00:05.274Z,5.7
2019-03-23T17:03:05.656Z,6.3
2019-03-23T17:06:05.197Z,4.5
2019-03-23T17:09:05.198Z,5
2019-03-23T17:12:05.732Z,4.3
2019-03-23T17:15:05.281Z,8.8
2019-03-23T17:18:05.424Z,6.5
2019-03-23T17:21:06.451Z,20.1
2019-03-23T17:24:05.277Z,13.4
2019-03-23T17:27:05.297Z,16.5
2019-03-23T17:30:05.311Z,15.9
2019-03-23T17:33:05.627Z,11.6
2019-03-23T17:36:05.308Z,15.4
2019-03-23T17:39:05.358Z,12
2019-03-23T17:42:05.371Z,11.1
2019-03-23T17:45:05.285Z,13.2
2019-03-23T17:48:05.136Z,10
2019-03-23T17:51:07.533Z,8.3
2019-03-23T17:54:05.231Z,9.8
2019-03-23T17:57:05.283Z,11.7
2019-03-23T18:00:05.514Z,7
2019-03-23T18:03:05.207Z,11.2
2019-03-23T18:06:05.187Z,8.9
2019-03-23T18:09:05.211Z,10.4
2019-03-23T18:12:05.316Z,8.6
2019-03-23T18:15:05.730Z,9
2019-03-23T18:18:05.387Z,11.5
2019-03-23T18:21:05.130Z,8.6
2019-03-23T18:24:05.258Z,9.4
2019-03-23T18:27:05.368Z,7
2019-03-23T18:30:05.226Z,8.4
2019-03-23T18:33:05.347Z,8.4
2019-03-23T18:36:05.057Z,7.4
2019-03-23T18:39:05.113Z,9.3
2019-03-23T18:42:05.264Z,9.3
2019-03-23T18:45:05.479Z,8.6
2019-03-23T18:48:05.293Z,7.5
2019-03-23T18:51:05.394Z,8.1
2019-03-23T18:54:05.347Z,8.6
2019-03-23T18:57:05.104Z,10.6
2019-03-23T19:00:05.259Z,8.3
2019-03-23T19:03:05.264Z,9.1
2019-03-23T19:06:05.354Z,9
2019-03-23T19:09:05.237Z,8.7
2019-03-23T19:12:05.113Z,8.9
2019-03-23T19:15:05.311Z,9.7
2019-03-23T19:18:05.190Z,8.6
2019-03-23T19:21:05.206Z,9.2
2019-03-23T19:24:07.204Z,9.2
2019-03-23T19:27:05.400Z,9.3
2019-03-23T19:30:05.050Z,11
2019-03-23T19:33:06.889Z,10.6
2019-03-23T19:36:05.250Z,10.1
2019-03-23T19:39:05.259Z,9.5
2019-03-23T19:42:05.286Z,9.3
2019-03-23T19:45:05.469Z,9.4
2019-03-23T19:48:05.122Z,13.4
2019-03-23T19:51:05.275Z,12.7
2019-03-23T19:54:05.546Z,11.2
2019-03-23T19:57:05.321Z,10.5
2019-03-23T20:00:06.596Z,11.3
2019-03-23T20:03:05.378Z,9.9
2019-03-23T20:06:05.215Z,10.8
2019-03-23T20:09:05.175Z,10.5
2019-03-23T20:12:05.165Z,9.4
2019-03-23T20:15:05.182Z,10.4
2019-03-23T20:18:05.562Z,8.2
2019-03-23T20:21:05.071Z,9.7
2019-03-23T20:24:05.136Z,10.5
2019-03-23T20:27:05.138Z,10.7
2019-03-23T20:30:05.235Z,11
2019-03-23T20:33:05.028Z,9.7
2019-03-23T20:36:05.356Z,11.5
2019-03-23T20:39:05.047Z,10.5
2019-03-23T20:42:05.099Z,11.1
2019-03-23T20:45:05.233Z,9
2019-03-23T20:48:05.135Z,9.3
2019-03-23T20:51:05.457Z,10
2019-03-23T20:54:05.250Z,10.4
2019-03-23T20:57:05.037Z,11
2019-03-23T21:00:05.136Z,10.5
2019-03-23T21:03:05.172Z,9.9
2019-03-23T21:06:05.371Z,11.8
2019-03-23T21:09:05.454Z,10.4
2019-03-23T21:12:05.351Z,9.3
2019-03-23T21:15:05.071Z,9.7
2019-03-23T21:18:06.172Z,12.5
2019-03-23T21:21:05.504Z,11.7
2019-03-23T21:24:05.121Z,11.9
2019-03-23T21:27:05.244Z,10.4
2019-03-23T21:30:05.326Z,11.2
2019-03-23T21:33:05.111Z,9.8
2019-03-23T21:36:05.111Z,9.5
2019-03-23T21:39:05.237Z,11.5
2019-03-23T21:42:05.271Z,9.4
2019-03-23T21:45:05.266Z,9.7
2019-03-23T21:48:05.366Z,11.4
2019-03-23T21:51:05.049Z,10.1
2019-03-23T21:54:05.343Z,10.2
2019-03-23T21:57:05.135Z,10.2
2019-03-23T22:00:05.123Z,11.7
2019-03-23T22:03:05.512Z,11.8
2019-03-23T22:06:05.334Z,11
2019-03-23T22:09:05.151Z,10.5
2019-03-23T22:12:05.172Z,11.1
2019-03-23T22:15:05.150Z,11.5
2019-03-23T22:18:05.426Z,9
2019-03-23T22:21:05.179Z,13
2019-03-23T22:24:05.387Z,10.7
2019-03-23T22:27:05.073Z,10.9
2019-03-23T22:30:05.054Z,10.9
2019-03-23T22:33:05.087Z,10.2
2019-03-23T22:36:05.190Z,9.7
2019-03-23T22:39:05.255Z,10.2
2019-03-23T22:42:05.296Z,9.9
2019-03-23T22:45:05.094Z,10
2019-03-23T22:48:05.164Z,10.8
2019-03-23T22:51:05.199Z,10.4
2019-03-23T22:54:05.213Z,9.9
2019-03-23T22:57:05.170Z,10.3
2019-03-23T23:00:05.329Z,10.3
2019-03-23T23:03:05.129Z,10.2
2019-03-23T23:06:05.146Z,10.6
2019-03-23T23:09:05.253Z,9.4
2019-03-23T23:12:05.177Z,9.9
2019-03-23T23:15:05.484Z,9.2
2019-03-23T23:18:05.244Z,9.5
2019-03-23T23:21:05.101Z,10.5
2019-03-23T23:24:05.367Z,10.8
2019-03-23T23:27:05.291Z,10.2
2019-03-23T23:30:05.174Z,10.3
2019-03-23T23:33:05.201Z,9.9
2019-03-23T23:36:05.247Z,10.5
2019-03-23T23:39:04.983Z,8.9
2019-03-23T23:42:05.152Z,11.2
2019-03-23T23:45:16.259Z,10.1
2019-03-23T23:48:05.219Z,10.2
2019-03-23T23:51:05.196Z,10
2019-03-23T23:54:05.249Z,9.8
2019-03-23T23:57:05.162Z,9.6
